createdAt,value
2016-03-30T00:00:51.092Z,1000.23
2016-03-30T00:01:51.095Z,1000.19
2016-03-30T00:02:51.112Z,1000.22
2016-03-30T00:03:51.115Z,1000.18
2016-03-30T00:04:51.118Z,1000.14
2016-03-30T00:05:51.120Z,1000.17
2016-03-30T00:06:51.123Z,1000.12
2016-03-30T00:07:51.126Z,1000.1
2016-03-30T00:08:51.145Z,1000.15
2016-03-30T00:09:51.147Z,1000.12
2016-03-30T00:10:51.150Z,1000.17
2016-03-30T00:11:51.153Z,1000.26
2016-03-30T00:12:51.172Z,1000.22
2016-03-30T00:13:51.174Z,1000.21
2016-03-30T00:14:51.176Z,1000.26
2016-03-30T00:15:51.180Z,1000.24
2016-03-30T00:16:51.182Z,1000.3
2016-03-30T00:17:51.185Z,1000.29
2016-03-30T00:18:51.203Z,1000.28
2016-03-30T00:19:51.206Z,1000.3
2016-03-30T00:20:51.208Z,1000.31
2016-03-30T00:21:51.210Z,1000.44
2016-03-30T00:22:51.230Z,1000.32
2016-03-30T00:23:51.232Z,1000.39
2016-03-30T00:24:51.235Z,1000.36
2016-03-30T00:25:51.237Z,1000.47
2016-03-30T00:26:51.255Z,1000.41
2016-03-30T00:27:51.258Z,1000.38
2016-03-30T00:28:51.260Z,1000.38
2016-03-30T00:29:51.263Z,1000.22
2016-03-30T00:30:51.266Z,1000.28
2016-03-30T00:31:51.284Z,1000.29
2016-03-30T00:32:51.287Z,1000.33
2016-03-30T00:33:51.289Z,1000.28
2016-03-30T00:34:51.292Z,1000.31
2016-03-30T00:35:51.311Z,1000.3
2016-03-30T00:36:51.313Z,1000.24
2016-03-30T00:37:51.317Z,1000.21
2016-03-30T00:38:51.319Z,1000.21
2016-03-30T00:39:51.322Z,1000.22
2016-03-30T00:40:51.340Z,1000.22
2016-03-30T00:41:51.342Z,1000.22
2016-03-30T00:42:51.361Z,1000.2
2016-03-30T00:43:51.347Z,1000.11
2016-03-30T00:44:51.351Z,1000.1
2016-03-30T00:45:51.369Z,1000.11
2016-03-30T00:46:51.372Z,1000.03
2016-03-30T00:47:51.374Z,1000.02
2016-03-30T00:48:51.377Z,1000.06
2016-03-30T00:49:51.380Z,1000.1
2016-03-30T00:50:51.399Z,1000.08
2016-03-30T00:51:51.402Z,1000.12
2016-03-30T00:52:51.404Z,1000.06
2016-03-30T00:53:51.406Z,1000.06
2016-03-30T00:54:51.424Z,1000.04
2016-03-30T00:55:51.427Z,1000
2016-03-30T00:56:51.430Z,1000.13
2016-03-30T00:57:51.432Z,1000.2
2016-03-30T00:58:51.435Z,1000.14
2016-03-30T00:59:51.469Z,1000.19
2016-03-30T01:00:51.456Z,1000.09
2016-03-30T01:01:51.460Z,1000.1
2016-03-30T01:02:51.462Z,1000.1
2016-03-30T01:03:51.465Z,1000.09
2016-03-30T01:04:51.482Z,1000.07
2016-03-30T01:05:51.485Z,1000.07
2016-03-30T01:06:51.485Z,1000.06
2016-03-30T01:07:51.477Z,999.99
2016-03-30T01:08:51.469Z,1000.02
2016-03-30T01:09:51.461Z,1000.04
2016-03-30T01:10:51.469Z,1000.06
2016-03-30T01:11:51.463Z,1000
2016-03-30T01:12:51.461Z,999.96
2016-03-30T01:13:51.459Z,999.98
2016-03-30T01:14:51.474Z,999.92
2016-03-30T01:15:51.472Z,999.92
2016-03-30T01:16:51.471Z,999.89
2016-03-30T01:17:51.472Z,999.87
2016-03-30T01:18:51.473Z,999.93
2016-03-30T01:19:51.490Z,999.97
2016-03-30T01:20:51.491Z,1000
2016-03-30T01:21:51.492Z,1000.02
2016-03-30T01:22:51.495Z,1000
2016-03-30T01:23:51.497Z,999.96
2016-03-30T01:24:51.515Z,999.95
2016-03-30T01:25:51.517Z,999.93
2016-03-30T01:26:51.520Z,999.92
2016-03-30T01:27:51.523Z,999.96
2016-03-30T01:28:51.541Z,999.98
2016-03-30T01:29:51.575Z,999.97
2016-03-30T01:30:51.547Z,999.93
2016-03-30T01:31:51.549Z,999.9
2016-03-30T01:32:51.552Z,999.94
2016-03-30T01:33:51.570Z,999.92
2016-03-30T01:34:51.573Z,999.9
2016-03-30T01:35:51.575Z,999.87
2016-03-30T01:36:51.577Z,999.94
2016-03-30T01:37:51.580Z,999.94
2016-03-30T01:38:51.599Z,999.95
2016-03-30T01:39:51.602Z,999.98
2016-03-30T01:40:51.605Z,1000.05
2016-03-30T01:41:51.607Z,1000.03
2016-03-30T01:42:51.610Z,1000.09
2016-03-30T01:43:51.627Z,1000
2016-03-30T01:44:51.631Z,999.96
2016-03-30T01:45:51.680Z,1000.01
2016-03-30T01:46:51.636Z,999.98
2016-03-30T01:47:51.654Z,999.97
2016-03-30T01:48:51.658Z,999.98
2016-03-30T01:49:51.660Z,999.93
2016-03-30T01:50:51.663Z,1000
2016-03-30T01:51:51.666Z,999.97
2016-03-30T01:52:51.684Z,999.94
2016-03-30T01:53:51.686Z,999.96
2016-03-30T01:54:51.689Z,999.94
2016-03-30T01:55:51.692Z,999.97
2016-03-30T01:56:51.695Z,999.95
2016-03-30T01:57:51.713Z,999.99
2016-03-30T01:58:51.715Z,1000
2016-03-30T01:59:51.733Z,999.98
2016-03-30T02:00:51.720Z,1000.02
2016-03-30T02:01:51.723Z,999.96
2016-03-30T02:02:51.742Z,999.92
2016-03-30T02:03:51.744Z,999.93
2016-03-30T02:04:51.747Z,1000.02
2016-03-30T02:05:51.750Z,1000.02
2016-03-30T02:06:51.752Z,999.99
2016-03-30T02:07:51.771Z,1000.02
2016-03-30T02:08:51.774Z,999.98
2016-03-30T02:09:51.777Z,999.96
2016-03-30T02:10:51.779Z,1000
2016-03-30T02:11:51.782Z,999.97
2016-03-30T02:12:51.799Z,999.97
2016-03-30T02:13:51.803Z,999.92
2016-03-30T02:14:51.805Z,999.94
2016-03-30T02:16:51.811Z,999.98
2016-03-30T02:17:51.829Z,999.96
2016-03-30T02:18:51.832Z,999.95
2016-03-30T02:19:51.835Z,999.91
2016-03-30T02:20:51.852Z,999.93
2016-03-30T02:21:51.840Z,999.96
2016-03-30T02:22:51.858Z,999.96
2016-03-30T02:23:51.860Z,999.97
2016-03-30T02:24:51.863Z,1000
2016-03-30T02:25:51.866Z,999.97
2016-03-30T02:26:51.869Z,999.95
2016-03-30T02:27:51.887Z,1000.04
2016-03-30T02:28:51.890Z,999.98
2016-03-30T02:29:51.909Z,999.96
2016-03-30T02:30:51.896Z,999.94
2016-03-30T02:31:51.898Z,999.91
2016-03-30T02:32:51.917Z,999.93
2016-03-30T02:33:51.919Z,999.92
2016-03-30T02:34:51.922Z,999.9
2016-03-30T02:35:51.925Z,999.86
2016-03-30T02:36:51.928Z,999.92
2016-03-30T02:37:51.945Z,1000
2016-03-30T02:38:51.948Z,1000.04
2016-03-30T02:39:51.950Z,999.97
2016-03-30T02:40:51.953Z,999.94
2016-03-30T02:41:51.972Z,999.91
2016-03-30T02:42:51.975Z,999.89
2016-03-30T02:43:51.977Z,999.95
2016-03-30T02:44:51.996Z,999.89
2016-03-30T02:45:54.795Z,999.87
2016-03-30T02:46:52.001Z,999.87
2016-03-30T02:47:52.004Z,999.85
2016-03-30T02:48:52.006Z,999.96
2016-03-30T02:49:52.010Z,999.97
2016-03-30T02:50:52.012Z,1000.04
2016-03-30T02:51:52.015Z,999.98
2016-03-30T02:52:52.033Z,999.94
2016-03-30T02:53:52.035Z,999.94
2016-03-30T02:54:52.038Z,999.95
2016-03-30T02:55:52.057Z,999.91
2016-03-30T02:56:52.059Z,999.92
2016-03-30T02:57:52.063Z,999.88
2016-03-30T02:58:52.065Z,999.84
2016-03-30T02:59:52.067Z,999.88
2016-03-30T03:00:52.070Z,999.82
2016-03-30T03:01:52.088Z,999.79
2016-03-30T03:02:52.090Z,999.78
2016-03-30T03:03:52.093Z,999.74
2016-03-30T03:04:52.096Z,999.76
2016-03-30T03:05:52.099Z,999.79
2016-03-30T03:06:52.117Z,999.79
2016-03-30T03:07:52.120Z,999.78
2016-03-30T03:08:52.123Z,999.69
2016-03-30T03:09:52.125Z,999.71
2016-03-30T03:10:52.128Z,999.7
2016-03-30T03:11:52.131Z,999.7
2016-03-30T03:12:52.149Z,999.71
2016-03-30T03:13:52.152Z,999.71
2016-03-30T03:14:52.155Z,999.69
2016-03-30T03:15:52.205Z,999.69
2016-03-30T03:16:52.161Z,999.75
2016-03-30T03:17:52.179Z,999.76
2016-03-30T03:18:52.180Z,999.76
2016-03-30T03:19:52.184Z,999.83
2016-03-30T03:20:52.187Z,999.85
2016-03-30T03:21:52.189Z,999.85
2016-03-30T03:22:52.208Z,999.88
2016-03-30T03:23:52.211Z,999.84
2016-03-30T03:24:52.213Z,999.89
2016-03-30T03:25:52.232Z,999.83
2016-03-30T03:26:52.235Z,999.84
2016-03-30T03:27:52.237Z,999.93
2016-03-30T03:28:52.240Z,999.88
2016-03-30T03:29:52.243Z,999.96
2016-03-30T03:30:52.245Z,999.99
2016-03-30T03:31:52.247Z,999.99
2016-03-30T03:32:52.250Z,999.91
2016-03-30T03:33:52.268Z,999.97
2016-03-30T03:34:52.271Z,999.97
2016-03-30T03:35:52.273Z,999.86
2016-03-30T03:36:52.277Z,999.93
2016-03-30T03:37:52.295Z,999.97
2016-03-30T03:38:52.298Z,1000.1
2016-03-30T03:39:52.301Z,999.96
2016-03-30T03:40:52.303Z,1000.1
2016-03-30T03:41:52.306Z,1000.08
2016-03-30T03:42:52.323Z,1000.12
2016-03-30T03:43:52.326Z,1000.07
2016-03-30T03:44:52.329Z,1000.08
2016-03-30T03:45:52.331Z,1000.11
2016-03-30T03:46:52.335Z,1000.07
2016-03-30T03:47:52.353Z,1000.07
2016-03-30T03:48:52.356Z,1000.09
2016-03-30T03:49:52.359Z,1000.17
2016-03-30T03:50:52.361Z,1000.19
2016-03-30T03:51:52.364Z,1000.25
2016-03-30T03:52:52.366Z,1000.21
2016-03-30T03:53:52.385Z,1000.1
2016-03-30T03:54:52.388Z,1000.11
2016-03-30T03:55:52.390Z,1000.16
2016-03-30T03:56:52.393Z,1000.1
2016-03-30T03:57:52.410Z,1000.07
2016-03-30T03:58:52.429Z,999.94
2016-03-30T03:59:52.416Z,999.95
2016-03-30T04:00:52.419Z,1000
2016-03-30T04:01:52.437Z,1000.07
2016-03-30T04:02:52.424Z,1000.07
2016-03-30T04:03:52.443Z,1000.1
2016-03-30T04:04:52.445Z,1000.06
2016-03-30T04:05:52.448Z,1000.04
2016-03-30T04:06:52.451Z,1000.11
2016-03-30T04:07:52.454Z,1000.09
2016-03-30T04:08:52.472Z,1000.09
2016-03-30T04:09:52.475Z,1000.06
2016-03-30T04:10:52.478Z,1000.09
2016-03-30T04:11:52.480Z,1000.08
2016-03-30T04:12:52.483Z,1000.07
2016-03-30T04:13:52.500Z,1000.09
2016-03-30T04:14:52.503Z,1000.13
2016-03-30T04:15:52.506Z,1000.11
2016-03-30T04:16:52.508Z,1000.1
2016-03-30T04:17:52.512Z,1000.08
2016-03-30T04:18:52.530Z,1000.1
2016-03-30T04:19:52.533Z,1000.04
2016-03-30T04:20:52.536Z,1000.11
2016-03-30T04:21:52.539Z,1000.09
2016-03-30T04:22:52.541Z,1000.1
2016-03-30T04:23:52.559Z,1000.1
2016-03-30T04:24:52.561Z,1000.1
2016-03-30T04:25:52.564Z,1000.13
2016-03-30T04:26:52.567Z,1000.09
2016-03-30T04:27:52.570Z,1000.16
2016-03-30T04:28:52.589Z,1000.13
2016-03-30T04:29:52.591Z,1000.15
2016-03-30T04:30:52.594Z,1000.12
2016-03-30T04:31:52.597Z,1000.19
2016-03-30T04:32:52.615Z,1000.18
2016-03-30T04:33:52.618Z,1000.31
2016-03-30T04:34:52.620Z,1000.25
2016-03-30T04:35:52.623Z,1000.28
2016-03-30T04:36:52.626Z,1000.25
2016-03-30T04:37:52.628Z,1000.24
2016-03-30T04:38:52.631Z,1000.28
2016-03-30T04:39:52.648Z,1000.33
2016-03-30T04:40:52.651Z,1000.29
2016-03-30T04:41:52.654Z,1000.3
2016-03-30T04:42:52.656Z,1000.36
2016-03-30T04:43:52.660Z,1000.42
2016-03-30T04:44:52.678Z,1000.42
2016-03-30T04:45:52.681Z,1000.39
2016-03-30T04:46:52.684Z,1000.32
2016-03-30T04:47:52.687Z,1000.31
2016-03-30T04:48:52.689Z,1000.3
2016-03-30T04:49:52.692Z,1000.25
2016-03-30T04:50:52.710Z,1000.21
2016-03-30T04:51:52.713Z,1000.31
2016-03-30T04:52:52.716Z,1000.39
2016-03-30T04:53:52.718Z,1000.35
2016-03-30T04:54:52.736Z,1000.36
2016-03-30T04:55:52.738Z,1000.35
2016-03-30T04:56:52.741Z,1000.47
2016-03-30T04:57:52.744Z,1000.48
2016-03-30T04:58:52.746Z,1000.46
2016-03-30T04:59:52.750Z,1000.44
2016-03-30T05:00:52.768Z,1000.46
2016-03-30T05:01:52.771Z,1000.47
2016-03-30T05:02:52.774Z,1000.46
2016-03-30T05:03:52.776Z,1000.57
2016-03-30T05:04:52.794Z,1000.57
2016-03-30T05:05:52.796Z,1000.56
2016-03-30T05:06:52.799Z,1000.49
2016-03-30T05:07:52.802Z,1000.47
2016-03-30T05:08:52.805Z,1000.45
2016-03-30T05:09:52.808Z,1000.44
2016-03-30T05:10:52.826Z,1000.46
2016-03-30T05:11:52.829Z,1000.53
2016-03-30T05:12:52.832Z,1000.47
2016-03-30T05:13:52.835Z,1000.54
2016-03-30T05:14:52.837Z,1000.63
2016-03-30T05:15:52.856Z,1000.6
2016-03-30T05:16:52.858Z,1000.67
2016-03-30T05:17:52.861Z,1000.63
2016-03-30T05:18:52.863Z,1000.65
2016-03-30T05:19:52.866Z,1000.58
2016-03-30T05:20:52.869Z,1000.57
2016-03-30T05:21:52.886Z,1000.59
2016-03-30T05:22:52.889Z,1000.65
2016-03-30T05:23:52.892Z,1000.63
2016-03-30T05:24:52.895Z,1000.64
2016-03-30T05:25:52.914Z,1000.65
2016-03-30T05:26:52.916Z,1000.64
2016-03-30T05:27:52.919Z,1000.64
2016-03-30T05:28:52.922Z,1000.69
2016-03-30T05:29:52.940Z,1000.66
2016-03-30T05:30:52.943Z,1000.71
2016-03-30T05:31:52.945Z,1000.76
2016-03-30T05:32:52.948Z,1000.74
2016-03-30T05:33:52.951Z,1000.73
2016-03-30T05:34:52.953Z,1000.74
2016-03-30T05:35:52.956Z,1000.69
2016-03-30T05:36:52.973Z,1000.78
2016-03-30T05:37:52.976Z,1000.82
2016-03-30T05:38:52.979Z,1000.83
2016-03-30T05:39:52.982Z,1000.88
2016-03-30T05:40:52.985Z,1000.91
2016-03-30T05:41:53.004Z,1000.89
2016-03-30T05:42:53.006Z,1000.88
2016-03-30T05:43:53.009Z,1000.9
2016-03-30T05:44:53.012Z,1000.88
2016-03-30T05:45:53.014Z,1000.86
2016-03-30T05:46:53.017Z,1000.9
2016-03-30T05:47:53.034Z,1000.91
2016-03-30T05:48:53.037Z,1000.9
2016-03-30T05:49:53.056Z,1000.99
2016-03-30T05:50:53.042Z,1001.01
2016-03-30T05:51:53.046Z,1001.07
2016-03-30T05:52:53.064Z,1001.07
2016-03-30T05:53:53.067Z,1001.05
2016-03-30T05:54:53.070Z,1001.01
2016-03-30T05:55:53.072Z,1001.05
2016-03-30T05:56:53.075Z,1001.05
2016-03-30T05:57:53.093Z,1001.09
2016-03-30T05:58:53.096Z,1001.11
2016-03-30T05:59:53.099Z,1001.16
2016-03-30T06:00:53.102Z,1001.2
2016-03-30T06:01:53.104Z,1001.19
2016-03-30T06:02:53.122Z,1001.25
2016-03-30T06:03:53.124Z,1001.25
2016-03-30T06:04:53.127Z,1001.28
2016-03-30T06:05:53.130Z,1001.29
2016-03-30T06:06:53.133Z,1001.24
2016-03-30T06:07:53.136Z,1001.24
2016-03-30T06:08:53.154Z,1001.28
2016-03-30T06:09:53.157Z,1001.29
2016-03-30T06:10:53.160Z,1001.26
2016-03-30T06:11:53.162Z,1001.37
2016-03-30T06:12:53.165Z,1001.35
2016-03-30T06:13:53.183Z,1001.39
2016-03-30T06:14:53.186Z,1001.42
2016-03-30T06:15:53.189Z,1001.41
2016-03-30T06:16:53.191Z,1001.46
2016-03-30T06:17:53.194Z,1001.49
2016-03-30T06:18:53.211Z,1001.49
2016-03-30T06:19:53.214Z,1001.51
2016-03-30T06:20:53.217Z,1001.52
2016-03-30T06:21:53.219Z,1001.53
2016-03-30T06:22:53.222Z,1001.55
2016-03-30T06:23:53.225Z,1001.56
2016-03-30T06:24:53.244Z,1001.52
2016-03-30T06:25:53.247Z,1001.56
2016-03-30T06:26:53.250Z,1001.6
2016-03-30T06:27:53.252Z,1001.71
2016-03-30T06:28:53.255Z,1001.7
2016-03-30T06:29:53.272Z,1001.76
2016-03-30T06:30:53.275Z,1001.78
2016-03-30T06:31:53.278Z,1001.76
2016-03-30T06:32:53.296Z,1001.7
2016-03-30T06:33:53.284Z,1001.75
2016-03-30T06:34:53.302Z,1001.83
2016-03-30T06:35:53.305Z,1001.82
2016-03-30T06:36:53.308Z,1001.86
2016-03-30T06:37:53.310Z,1001.9
2016-03-30T06:38:53.313Z,1001.88
2016-03-30T06:39:53.331Z,1001.86
2016-03-30T06:40:53.334Z,1001.87
2016-03-30T06:41:53.337Z,1001.85
2016-03-30T06:42:53.339Z,1001.86
2016-03-30T06:43:53.357Z,1001.87
2016-03-30T06:44:53.344Z,1001.89
2016-03-30T06:46:53.363Z,1001.85
2016-03-30T06:47:53.365Z,1001.83
2016-03-30T06:48:53.368Z,1001.85
2016-03-30T06:49:53.371Z,1001.85
2016-03-30T06:50:53.389Z,1001.87
2016-03-30T06:51:53.392Z,1001.82
2016-03-30T06:52:53.394Z,1001.92
2016-03-30T06:53:53.397Z,1001.96
2016-03-30T06:54:53.400Z,1001.99
2016-03-30T06:55:53.418Z,1001.96
2016-03-30T06:56:53.421Z,1001.99
2016-03-30T06:57:53.424Z,1001.97
2016-03-30T06:58:53.426Z,1001.94
2016-03-30T06:59:53.445Z,1001.97
2016-03-30T07:00:53.447Z,1002
2016-03-30T07:01:53.450Z,1002
2016-03-30T07:02:53.453Z,1001.99
2016-03-30T07:03:53.455Z,1002.01
2016-03-30T07:04:53.474Z,1002.04
2016-03-30T07:05:53.477Z,1001.99
2016-03-30T07:06:53.479Z,1002.05
2016-03-30T07:07:53.483Z,1002.07
2016-03-30T07:08:53.485Z,1002.1
2016-03-30T07:09:53.488Z,1002.14
2016-03-30T07:10:53.491Z,1002.09
2016-03-30T07:11:53.508Z,1002.1
2016-03-30T07:12:53.511Z,1002.12
2016-03-30T07:13:53.514Z,1002.16
2016-03-30T07:14:53.517Z,1002.21
2016-03-30T07:15:53.520Z,1002.26
2016-03-30T07:16:53.538Z,1002.32
2016-03-30T07:17:53.541Z,1002.27
2016-03-30T07:18:53.544Z,1002.28
2016-03-30T07:19:53.546Z,1002.35
2016-03-30T07:20:53.565Z,1002.34
2016-03-30T07:21:53.551Z,1002.34
2016-03-30T07:22:53.570Z,1002.37
2016-03-30T07:23:53.573Z,1002.32
2016-03-30T07:24:53.575Z,1002.43
2016-03-30T07:25:53.578Z,1002.4
2016-03-30T07:26:53.596Z,1002.36
2016-03-30T07:27:53.599Z,1002.37
2016-03-30T07:28:53.602Z,1002.37
2016-03-30T07:29:53.604Z,1002.42
2016-03-30T07:30:53.607Z,1002.45
2016-03-30T07:31:53.626Z,1002.47
2016-03-30T07:32:53.628Z,1002.49
2016-03-30T07:33:53.631Z,1002.51
2016-03-30T07:34:53.633Z,1002.52
2016-03-30T07:35:53.636Z,1002.57
2016-03-30T07:36:53.655Z,1002.58
2016-03-30T07:37:53.658Z,1002.57
2016-03-30T07:38:53.661Z,1002.56
2016-03-30T07:39:53.678Z,1002.59
2016-03-30T07:40:53.681Z,1002.58
2016-03-30T07:41:53.683Z,1002.6
2016-03-30T07:42:53.686Z,1002.69
2016-03-30T07:43:53.689Z,1002.67
2016-03-30T07:44:53.708Z,1002.74
2016-03-30T07:45:53.711Z,1002.69
2016-03-30T07:46:53.713Z,1002.71
2016-03-30T07:47:53.716Z,1002.63
2016-03-30T07:48:53.718Z,1002.61
2016-03-30T07:49:53.736Z,1002.69
2016-03-30T07:50:53.739Z,1002.71
2016-03-30T07:51:53.742Z,1002.77
2016-03-30T07:52:53.744Z,1002.71
2016-03-30T07:53:53.746Z,1002.81
2016-03-30T07:54:53.765Z,1002.89
2016-03-30T07:55:53.768Z,1002.85
2016-03-30T07:56:53.771Z,1002.86
2016-03-30T07:57:53.773Z,1002.81
2016-03-30T07:58:53.792Z,1002.82
2016-03-30T07:59:53.795Z,1002.71
2016-03-30T08:00:53.798Z,1002.72
2016-03-30T08:01:53.800Z,1002.76
2016-03-30T08:02:53.818Z,1002.79
2016-03-30T08:03:53.821Z,1002.84
2016-03-30T08:04:53.812Z,1002.8
2016-03-30T08:05:53.825Z,1002.76
2016-03-30T08:06:53.826Z,1002.8
2016-03-30T08:07:53.820Z,1002.85
2016-03-30T08:08:53.840Z,1002.9
2016-03-30T08:09:53.881Z,1002.9
2016-03-30T08:10:53.853Z,1002.96
2016-03-30T08:11:53.856Z,1002.83
2016-03-30T08:12:53.875Z,1002.88
2016-03-30T08:13:53.862Z,1002.88
2016-03-30T08:14:53.880Z,1002.87
2016-03-30T08:15:53.961Z,1002.92
2016-03-30T08:16:53.885Z,1003
2016-03-30T08:17:53.889Z,1002.95
2016-03-30T08:18:53.906Z,1002.99
2016-03-30T08:19:53.909Z,1002.97
2016-03-30T08:20:53.911Z,1002.91
2016-03-30T08:21:53.930Z,1002.96
2016-03-30T08:22:53.933Z,1002.91
2016-03-30T08:23:53.935Z,1002.97
2016-03-30T08:24:53.939Z,1002.99
2016-03-30T08:25:53.956Z,1002.97
2016-03-30T08:26:53.959Z,1003
2016-03-30T08:27:53.961Z,1003.01
2016-03-30T08:28:53.980Z,1003
2016-03-30T08:29:53.983Z,1002.95
2016-03-30T08:30:54.002Z,1002.96
2016-03-30T08:31:53.989Z,1003
2016-03-30T08:32:54.008Z,1002.91
2016-03-30T08:33:54.010Z,1002.92
2016-03-30T08:34:54.013Z,1003.01
2016-03-30T08:35:54.022Z,1002.97
2016-03-30T08:36:54.024Z,1002.96
2016-03-30T08:37:54.042Z,1002.99
2016-03-30T08:38:54.045Z,1002.91
2016-03-30T08:39:54.047Z,1002.99
2016-03-30T08:40:54.066Z,1003.01
2016-03-30T08:41:54.068Z,1002.94
2016-03-30T08:42:54.071Z,1002.96
2016-03-30T08:43:54.081Z,1002.89
2016-03-30T08:44:54.084Z,1002.93
2016-03-30T08:46:54.104Z,1003
2016-03-30T08:47:54.107Z,1002.97
2016-03-30T08:48:54.110Z,1003.04
2016-03-30T08:49:54.128Z,1003.16
2016-03-30T08:50:54.131Z,1003.08
2016-03-30T08:51:54.134Z,1003.11
2016-03-30T08:52:54.153Z,1003.08
2016-03-30T08:53:54.155Z,1002.98
2016-03-30T08:54:54.158Z,1003.01
2016-03-30T08:55:54.161Z,1003.05
2016-03-30T08:56:54.179Z,1003
2016-03-30T08:57:54.181Z,1003.06
2016-03-30T08:58:54.183Z,1002.99
2016-03-30T08:59:54.187Z,1003.1
2016-03-30T09:00:54.205Z,1003.07
2016-03-30T09:01:54.208Z,1003.05
2016-03-30T09:02:54.210Z,1003.14
2016-03-30T09:03:54.228Z,1003.12
2016-03-30T09:04:54.231Z,1003.13
2016-03-30T09:05:54.234Z,1003.16
2016-03-30T09:06:54.236Z,1003.14
2016-03-30T09:07:54.255Z,1003.16
2016-03-30T09:08:54.257Z,1003.25
2016-03-30T09:09:54.261Z,1003.2
2016-03-30T09:10:54.279Z,1003.17
2016-03-30T09:11:54.282Z,1003.12
2016-03-30T09:12:54.285Z,1003.14
2016-03-30T09:13:54.303Z,1003.11
2016-03-30T09:14:54.305Z,1003.1
2016-03-30T09:15:54.308Z,1003.09
2016-03-30T09:16:54.311Z,1003.2
2016-03-30T09:17:54.329Z,1003.19
2016-03-30T09:18:54.332Z,1003.18
2016-03-30T09:19:54.334Z,1003.34
2016-03-30T09:20:54.338Z,1003.21
2016-03-30T09:21:54.356Z,1003.3
2016-03-30T09:22:54.359Z,1003.26
2016-03-30T09:23:54.361Z,1003.27
2016-03-30T09:24:54.378Z,1003.3
2016-03-30T09:25:54.381Z,1003.3
2016-03-30T09:26:54.385Z,1003.32
2016-03-30T09:27:54.403Z,1003.37
2016-03-30T09:28:54.405Z,1003.3
2016-03-30T09:29:54.408Z,1003.33
2016-03-30T09:30:54.411Z,1003.29
2016-03-30T09:31:54.429Z,1003.35
2016-03-30T09:32:54.431Z,1003.29
2016-03-30T09:33:54.434Z,1003.37
2016-03-30T09:34:54.453Z,1003.37
2016-03-30T09:35:54.456Z,1003.37
2016-03-30T09:36:54.458Z,1003.34
2016-03-30T09:37:54.461Z,1003.3
2016-03-30T09:38:54.479Z,1003.41
2016-03-30T09:39:54.482Z,1003.39
2016-03-30T09:40:54.485Z,1003.48
2016-03-30T09:41:54.488Z,1003.47
2016-03-30T09:42:54.505Z,1003.4
2016-03-30T09:43:54.508Z,1003.4
2016-03-30T09:44:54.511Z,1003.45
2016-03-30T09:45:54.529Z,1003.48
2016-03-30T09:46:54.532Z,1003.46
2016-03-30T09:47:54.535Z,1003.4
2016-03-30T09:48:54.537Z,1003.52
2016-03-30T09:49:54.556Z,1003.41
2016-03-30T09:50:54.559Z,1003.4
2016-03-30T09:51:54.562Z,1003.46
2016-03-30T09:52:54.579Z,1003.41
2016-03-30T09:53:54.582Z,1003.47
2016-03-30T09:54:54.585Z,1003.42
2016-03-30T09:55:54.587Z,1003.36
2016-03-30T09:56:54.606Z,1003.45
2016-03-30T09:57:54.609Z,1003.55
2016-03-30T09:58:54.626Z,1003.56
2016-03-30T09:59:54.629Z,1003.58
2016-03-30T10:00:54.647Z,1003.56
2016-03-30T10:01:54.651Z,1003.51
2016-03-30T10:02:54.653Z,1003.64
2016-03-30T10:03:54.656Z,1003.54
2016-03-30T10:04:54.658Z,1003.5
2016-03-30T10:05:54.677Z,1003.48
2016-03-30T10:06:54.680Z,1003.43
2016-03-30T10:07:54.683Z,1003.4
2016-03-30T10:08:54.686Z,1003.34
2016-03-30T10:09:54.703Z,1003.4
2016-03-30T10:10:54.705Z,1003.4
2016-03-30T10:11:54.708Z,1003.36
2016-03-30T10:12:54.724Z,1003.35
2016-03-30T10:13:54.717Z,1003.38
2016-03-30T10:14:54.709Z,1003.41
2016-03-30T10:15:54.702Z,1003.34
2016-03-30T10:16:54.709Z,1003.42
2016-03-30T10:17:54.704Z,1003.38
2016-03-30T10:18:54.702Z,1003.38
2016-03-30T10:19:54.717Z,1003.4
2016-03-30T10:20:54.715Z,1003.38
2016-03-30T10:21:54.714Z,1003.38
2016-03-30T10:22:54.729Z,1003.44
2016-03-30T10:23:54.731Z,1003.43
2016-03-30T10:24:54.732Z,1003.36
2016-03-30T10:25:54.748Z,1003.4
2016-03-30T10:26:54.749Z,1003.4
2016-03-30T10:27:54.751Z,1003.49
2016-03-30T10:28:54.753Z,1003.47
2016-03-30T10:29:54.771Z,1003.45
2016-03-30T10:30:54.804Z,1003.48
2016-03-30T10:31:54.776Z,1003.55
2016-03-30T10:32:54.794Z,1003.51
2016-03-30T10:33:54.797Z,1003.52
2016-03-30T10:34:54.799Z,1003.59
2016-03-30T10:35:54.818Z,1003.56
2016-03-30T10:36:54.820Z,1003.54
2016-03-30T10:37:54.823Z,1003.49
2016-03-30T10:38:54.841Z,1003.5
2016-03-30T10:39:54.844Z,1003.55
2016-03-30T10:40:54.846Z,1003.54
2016-03-30T10:41:54.850Z,1003.55
2016-03-30T10:42:54.868Z,1003.53
2016-03-30T10:43:54.871Z,1003.57
2016-03-30T10:44:54.889Z,1003.59
2016-03-30T10:45:54.907Z,1003.56
2016-03-30T10:46:54.893Z,1003.55
2016-03-30T10:47:54.896Z,1003.56
2016-03-30T10:48:54.915Z,1003.58
2016-03-30T10:49:54.918Z,1003.55
2016-03-30T10:50:54.921Z,1003.55
2016-03-30T10:51:54.923Z,1003.56
2016-03-30T10:52:54.941Z,1003.56
2016-03-30T10:53:54.944Z,1003.59
2016-03-30T10:54:54.962Z,1003.59
2016-03-30T10:55:54.965Z,1003.59
2016-03-30T10:56:54.967Z,1003.63
2016-03-30T10:57:54.970Z,1003.66
2016-03-30T10:58:54.989Z,1003.66
2016-03-30T10:59:54.992Z,1003.67
2016-03-30T11:00:55.119Z,1003.71
2016-03-30T11:01:55.012Z,1003.69
2016-03-30T11:02:55.015Z,1003.68
2016-03-30T11:03:55.017Z,1003.61
2016-03-30T11:04:55.037Z,1003.68
2016-03-30T11:05:55.039Z,1003.6
2016-03-30T11:06:55.042Z,1003.68
2016-03-30T11:07:55.060Z,1003.69
2016-03-30T11:08:55.063Z,1003.72
2016-03-30T11:09:55.065Z,1003.73
2016-03-30T11:10:55.083Z,1003.68
2016-03-30T11:11:55.086Z,1003.69
2016-03-30T11:12:55.089Z,1003.71
2016-03-30T11:13:55.107Z,1003.66
2016-03-30T11:14:55.110Z,1003.78
2016-03-30T11:15:55.112Z,1003.7
2016-03-30T11:16:55.116Z,1003.72
2016-03-30T11:17:55.118Z,1003.71
2016-03-30T11:18:55.136Z,1003.71
2016-03-30T11:19:55.138Z,1003.69
2016-03-30T11:20:55.141Z,1003.68
2016-03-30T11:21:55.144Z,1003.74
2016-03-30T11:22:55.163Z,1003.74
2016-03-30T11:23:55.165Z,1003.73
2016-03-30T11:24:55.168Z,1003.67
2016-03-30T11:25:55.187Z,1003.75
2016-03-30T11:26:55.189Z,1003.7
2016-03-30T11:27:55.207Z,1003.63
2016-03-30T11:28:55.210Z,1003.69
2016-03-30T11:29:55.212Z,1003.63
2016-03-30T11:30:55.215Z,1003.64
2016-03-30T11:31:55.218Z,1003.61
2016-03-30T11:32:55.237Z,1003.61
2016-03-30T11:33:55.239Z,1003.65
2016-03-30T11:34:55.258Z,1003.65
2016-03-30T11:35:55.260Z,1003.61
2016-03-30T11:36:55.263Z,1003.64
2016-03-30T11:37:55.266Z,1003.57
2016-03-30T11:38:55.284Z,1003.62
2016-03-30T11:39:55.287Z,1003.61
2016-03-30T11:40:55.289Z,1003.61
2016-03-30T11:41:55.292Z,1003.56
2016-03-30T11:42:55.310Z,1003.55
2016-03-30T11:43:55.313Z,1003.6
2016-03-30T11:44:55.316Z,1003.63
2016-03-30T11:45:55.334Z,1003.65
2016-03-30T11:46:55.336Z,1003.67
2016-03-30T11:47:55.338Z,1003.72
2016-03-30T11:48:55.357Z,1003.65
2016-03-30T11:49:55.360Z,1003.68
2016-03-30T11:50:55.363Z,1003.7
2016-03-30T11:51:55.365Z,1003.68
2016-03-30T11:52:55.384Z,1003.76
2016-03-30T11:53:55.387Z,1003.7
2016-03-30T11:54:55.390Z,1003.67
2016-03-30T11:55:55.408Z,1003.64
2016-03-30T11:56:55.410Z,1003.65
2016-03-30T11:57:55.412Z,1003.72
2016-03-30T11:58:55.416Z,1003.61
2016-03-30T11:59:55.434Z,1003.65
2016-03-30T12:00:55.437Z,1003.61
2016-03-30T12:01:55.439Z,1003.63
2016-03-30T12:02:55.458Z,1003.7
2016-03-30T12:03:55.461Z,1003.66
2016-03-30T12:04:55.464Z,1003.58
2016-03-30T12:05:55.481Z,1003.67
2016-03-30T12:06:55.483Z,1003.67
2016-03-30T12:07:55.486Z,1003.72
2016-03-30T12:08:55.494Z,1003.67
2016-03-30T12:09:55.512Z,1003.63
2016-03-30T12:10:55.515Z,1003.64
2016-03-30T12:11:55.517Z,1003.71
2016-03-30T12:12:55.535Z,1003.67
2016-03-30T12:13:55.537Z,1003.75
2016-03-30T12:14:55.541Z,1003.69
2016-03-30T12:15:55.543Z,1003.7
2016-03-30T12:16:55.561Z,1003.76